Time;durP1;ratioP1;P1;durP2;ratioP2;P2;SDS_P1;SDS_P2;PMS_P1;PMS_P2;Temp;Humidity;BMP_temperature;BMP_pressure;BME280_temperature;BME280_humidity;BME280_pressure;Samples;Min_cycle;Max_cycle;Signal;HPM_P1;HPM_P2
2021/07/25 00:00:40;;;;;;;13.93;9.27;;;19.60;99.90;;;;;;5010981;28;20202;-72
2021/07/25 00:03:07;;;;;;;15.05;9.25;;;19.60;99.90;;;;;;5010848;28;20398;-73
2021/07/25 00:05:33;;;;;;;15.23;9.27;;;19.50;99.90;;;;;;5012229;28;20113;-72
2021/07/25 00:07:59;;;;;;;14.77;9.32;;;19.40;99.90;;;;;;5012291;28;20129;-73
2021/07/25 00:10:26;;;;;;;15.80;10.23;;;19.30;99.90;;;;;;5012185;28;20030;-72
2021/07/25 00:12:51;;;;;;;14.40;9.48;;;19.30;99.90;;;;;;5012345;28;20493;-73
2021/07/25 00:15:18;;;;;;;17.90;11.20;;;19.20;99.90;;;;;;5010683;28;20161;-72
2021/07/25 00:17:44;;;;;;;18.70;11.77;;;18.80;99.90;;;;;;5011913;28;20061;-73
2021/07/25 00:20:11;;;;;;;17.88;11.25;;;18.60;99.90;;;;;;5011148;28;20062;-73
2021/07/25 00:22:36;;;;;;;17.98;11.52;;;18.60;99.90;;;;;;5011593;28;20041;-72
2021/07/25 00:25:12;;;;;;;19.00;12.20;;;18.60;99.90;;;;;;4994863;28;20386;-72
2021/07/25 00:27:41;;;;;;;17.30;11.23;;;18.50;99.90;;;;;;5010800;28;20045;-72
2021/07/25 00:30:13;;;;;;;16.80;11.98;;;18.50;99.90;;;;;;5011932;28;20437;-73
2021/07/25 00:32:40;;;;;;;19.10;12.20;;;18.50;99.90;;;;;;5011694;28;20038;-73
2021/07/25 00:35:08;;;;;;;37.90;13.15;;;18.60;99.90;;;;;;5012128;28;20080;-71
2021/07/25 00:37:34;;;;;;;20.80;11.50;;;18.60;99.90;;;;;;5010541;28;20045;-71
2021/07/25 00:40:00;;;;;;;18.98;12.00;;;18.70;99.90;;;;;;5012601;28;20034;-72
2021/07/25 00:42:39;;;;;;;20.92;12.52;;;18.80;99.90;;;;;;5014476;28;20037;-72
2021/07/25 00:45:06;;;;;;;20.65;12.30;;;18.80;99.90;;;;;;5015660;28;20054;-72
2021/07/25 00:47:34;;;;;;;18.80;11.30;;;18.90;99.90;;;;;;5015282;28;20030;-72
2021/07/25 00:50:01;;;;;;;17.27;11.15;;;19.00;99.90;;;;;;5015450;28;20030;-72
2021/07/25 00:52:27;;;;;;;17.38;11.23;;;19.00;99.90;;;;;;5014104;28;20041;-72
2021/07/25 00:54:53;;;;;;;15.52;11.25;;;19.00;99.90;;;;;;5015466;28;20518;-72
2021/07/25 00:57:19;;;;;;;17.30;11.02;;;18.90;99.90;;;;;;5015412;28;20042;-72
2021/07/25 00:59:44;;;;;;;17.35;11.07;;;18.90;99.90;;;;;;5014038;28;20088;-72
2021/07/25 01:02:10;;;;;;;18.27;11.60;;;18.80;99.90;;;;;;5015470;28;20517;-72
2021/07/25 01:04:49;;;;;;;21.85;12.32;;;18.70;99.90;;;;;;5013917;28;20034;-72
2021/07/25 01:07:31;;;;;;;17.70;11.50;;;18.50;99.90;;;;;;5013896;28;20129;-72
2021/07/25 01:10:14;;;;;;;19.15;11.55;;;18.50;99.90;;;;;;5014042;28;20110;-72
2021/07/25 01:12:51;;;;;;;20.65;12.30;;;18.40;99.90;;;;;;5014840;28;20121;-72
2021/07/25 01:15:23;;;;;;;17.70;11.63;;;18.50;99.90;;;;;;5014119;28;20045;-72
2021/07/25 01:17:49;;;;;;;17.70;11.18;;;18.50;99.90;;;;;;5013536;28;20442;-72
2021/07/25 01:20:15;;;;;;;21.25;10.20;;;18.50;99.90;;;;;;5014105;28;20073;-72
2021/07/25 01:22:50;;;;;;;15.73;11.05;;;18.50;99.90;;;;;;5014889;28;20038;-72
2021/07/25 01:25:19;;;;;;;17.30;10.82;;;18.50;99.90;;;;;;5013685;28;20113;-72
2021/07/25 01:28:43;;;;;;;20.65;10.32;;;18.40;99.90;;;;;;5013259;28;20490;-72
2021/07/25 01:31:25;;;;;;;17.08;10.57;;;18.50;99.90;;;;;;4992607;28;20060;-72
2021/07/25 01:33:53;;;;;;;18.95;11.00;;;18.50;99.90;;;;;;4977383;28;20034;-72
2021/07/25 01:36:19;;;;;;;19.92;9.90;;;18.50;99.90;;;;;;4992731;28;20045;-72
2021/07/25 01:38:45;;;;;;;16.27;9.45;;;18.60;99.90;;;;;;4976336;28;20040;-72
2021/07/25 01:41:13;;;;;;;16.50;10.32;;;18.60;99.90;;;;;;4976523;28;20075;-72
2021/07/25 01:43:46;;;;;;;15.50;10.45;;;18.60;99.90;;;;;;4992192;28;20054;-72
2021/07/25 01:46:11;;;;;;;16.92;10.85;;;18.60;99.90;;;;;;4992510;28;20062;-72
2021/07/25 01:48:38;;;;;;;17.02;9.77;;;18.60;99.90;;;;;;4992360;28;20120;-72
2021/07/25 01:51:05;;;;;;;19.50;10.45;;;18.60;99.90;;;;;;4991368;28;20080;-72
2021/07/25 01:53:32;;;;;;;14.43;9.05;;;18.60;99.90;;;;;;4992170;28;20030;-72
2021/07/25 01:55:58;;;;;;;13.85;8.60;;;18.60;99.90;;;;;;4992436;28;20471;-72
2021/07/25 01:58:24;;;;;;;15.80;8.60;;;18.80;99.90;;;;;;4992163;28;20042;-72
2021/07/25 02:00:50;;;;;;;18.23;9.48;;;18.90;99.90;;;;;;4994129;28;20491;-72
2021/07/25 02:03:25;;;;;;;15.20;8.32;;;19.10;99.90;;;;;;5013102;28;20140;-72
2021/07/25 02:05:51;;;;;;;16.73;10.05;;;19.00;99.90;;;;;;5014022;28;20040;-72
2021/07/25 02:08:18;;;;;;;13.95;8.80;;;19.10;99.90;;;;;;5013093;28;20113;-72
2021/07/25 02:10:46;;;;;;;15.38;9.68;;;18.90;99.90;;;;;;5014086;28;20030;-72
2021/07/25 02:13:14;;;;;;;14.82;9.80;;;18.80;99.90;;;;;;5012797;28;20188;-72
2021/07/25 02:15:40;;;;;;;14.95;9.88;;;18.80;99.90;;;;;;5012873;28;20441;-72
2021/07/25 02:18:06;;;;;;;18.98;10.23;;;18.80;99.90;;;;;;5013775;28;20056;-72
2021/07/25 02:20:33;;;;;;;16.70;10.52;;;18.70;99.90;;;;;;5013980;28;20596;-72
2021/07/25 02:22:58;;;;;;;14.52;9.55;;;18.70;99.90;;;;;;5012731;28;20036;-72
2021/07/25 02:25:24;;;;;;;18.60;9.45;;;18.60;99.90;;;;;;5012405;28;20030;-72
2021/07/25 02:27:50;;;;;;;21.08;9.80;;;18.60;99.90;;;;;;5013938;28;20030;-72
2021/07/25 02:30:16;;;;;;;19.50;10.50;;;18.50;99.90;;;;;;5013759;28;20335;-72
2021/07/25 02:32:42;;;;;;;15.55;9.75;;;18.50;99.90;;;;;;5012336;28;20034;-72
2021/07/25 02:35:08;;;;;;;15.55;10.52;;;18.50;99.90;;;;;;5012616;28;20386;-72
2021/07/25 02:37:35;;;;;;;18.67;11.65;;;18.50;99.90;;;;;;5012467;28;20030;-72
2021/07/25 02:40:01;;;;;;;17.90;11.50;;;18.50;99.90;;;;;;5013365;28;20584;-72
2021/07/25 02:42:27;;;;;;;15.02;10.65;;;18.50;99.90;;;;;;5013438;28;20026;-72
2021/07/25 02:44:52;;;;;;;20.80;11.70;;;18.50;99.90;;;;;;5012935;28;20057;-72
2021/07/25 02:47:19;;;;;;;23.48;11.57;;;18.50;99.90;;;;;;5013302;28;20037;-72
2021/07/25 02:49:44;;;;;;;15.10;10.57;;;18.50;99.90;;;;;;5013404;28;20034;-72
2021/07/25 02:52:10;;;;;;;18.15;10.27;;;18.50;99.90;;;;;;5013228;28;20045;-72
2021/07/25 02:54:36;;;;;;;15.68;10.70;;;18.60;99.90;;;;;;5013214;28;20026;-72
2021/07/25 02:57:02;;;;;;;15.63;10.32;;;18.70;99.90;;;;;;5011913;28;20053;-72
2021/07/25 02:59:30;;;;;;;16.73;11.40;;;18.70;99.90;;;;;;4995644;28;20037;-72
2021/07/25 03:01:56;;;;;;;15.40;10.15;;;18.60;99.90;;;;;;5012708;28;20030;-72
2021/07/25 03:04:21;;;;;;;18.58;10.10;;;18.60;99.90;;;;;;5012749;28;20497;-72
2021/07/25 03:06:47;;;;;;;15.25;9.95;;;18.50;99.90;;;;;;5012807;28;20947;-72
2021/07/25 03:09:13;;;;;;;15.07;10.05;;;18.60;99.90;;;;;;5012791;28;20446;-72
2021/07/25 03:11:39;;;;;;;16.95;10.00;;;18.70;99.90;;;;;;5012816;28;20065;-72
2021/07/25 03:14:06;;;;;;;18.58;10.30;;;18.70;99.90;;;;;;5011808;28;20482;-72
2021/07/25 03:16:32;;;;;;;17.15;10.15;;;18.80;99.90;;;;;;5011377;28;20030;-72
2021/07/25 03:18:58;;;;;;;15.85;9.60;;;18.70;99.90;;;;;;5011598;28;20041;-72
2021/07/25 03:21:24;;;;;;;21.13;10.43;;;18.70;99.90;;;;;;5011777;28;20479;-72
2021/07/25 03:23:49;;;;;;;16.83;10.98;;;18.70;99.90;;;;;;5011433;28;20044;-72
2021/07/25 03:26:15;;;;;;;16.15;9.68;;;18.80;99.90;;;;;;5012591;28;20503;-72
2021/07/25 03:28:41;;;;;;;16.33;9.75;;;18.80;99.90;;;;;;5012779;28;20034;-72
2021/07/25 03:31:07;;;;;;;20.65;9.05;;;18.80;99.90;;;;;;5011580;28;20372;-72
2021/07/25 03:33:33;;;;;;;15.95;9.10;;;19.00;99.90;;;;;;5012320;28;20091;-72
2021/07/25 03:35:58;;;;;;;16.40;10.20;;;19.10;99.90;;;;;;5012648;28;20029;-72
2021/07/25 03:38:25;;;;;;;14.18;9.15;;;19.10;99.90;;;;;;5012394;28;20406;-72
2021/07/25 03:40:51;;;;;;;13.90;8.73;;;19.10;99.90;;;;;;5012228;28;20470;-72
2021/07/25 03:43:17;;;;;;;13.20;8.95;;;19.10;99.90;;;;;;5011455;28;20103;-72
2021/07/25 03:45:47;;;;;;;14.35;8.27;;;19.20;99.90;;;;;;5010781;28;20225;-72
2021/07/25 03:48:14;;;;;;;14.13;8.45;;;19.20;99.90;;;;;;5011526;28;20487;-72
2021/07/25 03:50:41;;;;;;;16.83;9.43;;;19.10;99.90;;;;;;5011009;28;20041;-72
2021/07/25 03:53:08;;;;;;;14.27;8.73;;;19.00;99.90;;;;;;4994802;28;20041;-72
2021/07/25 03:55:35;;;;;;;17.05;9.82;;;18.90;99.90;;;;;;5010783;28;20034;-72
2021/07/25 03:58:03;;;;;;;20.38;10.23;;;18.70;99.90;;;;;;5012466;28;20029;-72
2021/07/25 04:00:30;;;;;;;17.13;9.80;;;18.50;99.90;;;;;;5011053;28;20034;-72
2021/07/25 04:02:56;;;;;;;14.30;9.90;;;18.50;99.90;;;;;;5011232;28;20034;-71
2021/07/25 04:05:21;;;;;;;13.75;9.00;;;18.40;99.90;;;;;;5010893;28;20038;-72
2021/07/25 04:07:47;;;;;;;16.15;9.73;;;18.60;99.90;;;;;;5012266;28;20483;-72
2021/07/25 04:10:14;;;;;;;12.23;9.00;;;18.70;99.90;;;;;;5012352;28;20033;-72
2021/07/25 04:12:40;;;;;;;13.57;9.13;;;18.80;99.90;;;;;;5011458;28;20061;-72
2021/07/25 04:15:07;;;;;;;11.15;7.78;;;18.80;99.90;;;;;;5014466;28;20475;-72
2021/07/25 04:17:35;;;;;;;13.45;8.40;;;18.80;99.90;;;;;;5015938;28;20550;-72
2021/07/25 04:20:06;;;;;;;11.38;7.50;;;18.70;99.90;;;;;;5015198;28;20042;-73
2021/07/25 04:22:36;;;;;;;10.27;7.82;;;18.90;99.90;;;;;;5014894;28;20450;-72
2021/07/25 04:25:08;;;;;;;13.10;7.65;;;18.80;99.90;;;;;;5016117;28;20390;-71
2021/07/25 04:27:34;;;;;;;11.23;6.68;;;18.90;99.90;;;;;;5014389;28;20033;-72
2021/07/25 04:30:00;;;;;;;8.65;6.00;;;19.00;99.90;;;;;;5016128;28;20033;-72
2021/07/25 04:32:27;;;;;;;9.25;6.18;;;19.00;99.90;;;;;;5015953;28;20064;-71
2021/07/25 04:34:53;;;;;;;11.68;6.65;;;18.90;99.90;;;;;;5015795;28;20034;-71
2021/07/25 04:37:26;;;;;;;12.02;5.95;;;18.90;99.90;;;;;;5014532;28;20034;-71
2021/07/25 04:39:52;;;;;;;8.77;5.97;;;18.90;99.90;;;;;;4998806;28;20502;-71
2021/07/25 04:42:23;;;;;;;10.15;5.88;;;18.90;99.90;;;;;;5014732;28;20036;-72
2021/07/25 04:44:58;;;;;;;8.98;5.70;;;19.00;99.90;;;;;;5013975;28;20042;-71
2021/07/25 04:47:35;;;;;;;10.65;5.32;;;19.00;99.90;;;;;;5014540;28;20082;-71
2021/07/25 04:50:10;;;;;;;9.25;6.63;;;18.90;99.90;;;;;;5015454;28;20080;-73
2021/07/25 04:52:40;;;;;;;8.95;6.03;;;19.00;99.90;;;;;;5015583;28;20041;-71
2021/07/25 04:55:12;;;;;;;10.93;6.00;;;19.00;99.90;;;;;;5015618;28;20041;-71
2021/07/25 04:57:44;;;;;;;8.98;6.35;;;18.90;99.90;;;;;;5014117;28;20395;-72
2021/07/25 05:00:14;;;;;;;10.73;7.53;;;18.80;99.90;;;;;;5014157;28;20573;-72
2021/07/25 05:02:42;;;;;;;12.33;8.87;;;18.60;99.90;;;;;;5015574;28;20134;-72
2021/07/25 05:05:10;;;;;;;13.77;9.30;;;18.60;99.90;;;;;;5014334;28;20038;-72
2021/07/25 05:07:40;;;;;;;14.68;10.10;;;18.60;99.90;;;;;;5014984;28;20049;-71
2021/07/25 05:10:08;;;;;;;21.27;11.23;;;18.50;99.90;;;;;;5013926;28;20037;-72
2021/07/25 05:12:51;;;;;;;17.05;11.45;;;18.40;99.90;;;;;;5015308;28;20096;-71
2021/07/25 05:15:30;;;;;;;17.77;10.60;;;18.60;99.90;;;;;;5014136;28;20026;-72
2021/07/25 05:18:31;;;;;;;12.82;9.48;;;18.70;99.90;;;;;;5014893;28;20026;-71
2021/07/25 05:21:14;;;;;;;17.50;8.88;;;18.90;99.90;;;;;;5015081;28;20777;-72
2021/07/25 05:23:51;;;;;;;12.38;7.85;;;18.90;99.90;;;;;;5014643;28;20034;-72
2021/07/25 05:26:25;;;;;;;16.88;8.45;;;19.00;99.90;;;;;;5014695;28;20450;-72
2021/07/25 05:28:59;;;;;;;12.10;6.57;;;19.20;99.90;;;;;;5014749;28;20037;-72
2021/07/25 05:31:33;;;;;;;9.32;6.90;;;19.20;99.90;;;;;;4998051;28;20026;-72
2021/07/25 05:34:02;;;;;;;9.57;6.22;;;19.20;99.90;;;;;;5013428;28;20061;-71
2021/07/25 05:36:28;;;;;;;12.65;6.20;;;19.30;99.90;;;;;;5013541;28;20483;-71
2021/07/25 05:38:54;;;;;;;16.63;6.25;;;19.40;99.90;;;;;;5014644;28;20065;-72
2021/07/25 05:41:20;;;;;;;8.43;4.90;;;19.30;99.90;;;;;;5014733;28;20540;-72
2021/07/25 05:43:46;;;;;;;6.93;5.18;;;19.50;99.90;;;;;;5014273;28;20044;-72
2021/07/25 05:46:12;;;;;;;7.25;4.63;;;19.50;99.90;;;;;;5014309;28;20040;-72
2021/07/25 05:48:38;;;;;;;8.20;5.57;;;19.50;99.90;;;;;;5013237;28;20041;-72
2021/07/25 05:51:04;;;;;;;10.10;5.28;;;19.40;99.90;;;;;;5013076;28;20401;-69
2021/07/25 05:53:31;;;;;;;7.82;5.03;;;19.40;99.90;;;;;;5014549;28;20165;-69
2021/07/25 05:55:58;;;;;;;11.60;5.88;;;19.60;99.90;;;;;;5013978;28;20030;-69
2021/07/25 05:58:24;;;;;;;7.00;4.88;;;19.70;99.90;;;;;;5014150;28;20554;-69
2021/07/25 06:00:52;;;;;;;8.05;4.85;;;19.70;99.90;;;;;;5013204;28;20113;-69
2021/07/25 06:03:17;;;;;;;9.80;5.25;;;19.80;99.90;;;;;;4996798;28;20026;-69
2021/07/25 06:05:43;;;;;;;13.77;6.30;;;19.90;99.90;;;;;;5015830;28;20159;-70
2021/07/25 06:08:09;;;;;;;6.05;4.63;;;19.90;99.90;;;;;;5032077;28;20092;-75
2021/07/25 06:10:40;;;;;;;9.60;4.40;;;20.00;99.90;;;;;;5033981;28;20117;-78
2021/07/25 06:13:07;;;;;;;6.97;4.07;;;20.00;99.90;;;;;;5033957;28;20437;-77
2021/07/25 06:15:34;;;;;;;6.35;4.38;;;20.00;99.90;;;;;;5033833;28;20026;-79
2021/07/25 06:18:02;;;;;;;7.90;4.20;;;20.20;99.90;;;;;;5032393;28;20056;-77
2021/07/25 06:20:31;;;;;;;6.88;4.63;;;20.20;99.90;;;;;;5033442;28;20437;-76
2021/07/25 06:22:58;;;;;;;7.80;4.47;;;20.30;99.90;;;;;;5033689;28;20026;-74
2021/07/25 06:25:30;;;;;;;7.43;3.47;;;20.40;99.90;;;;;;5033716;28;20116;-71
2021/07/25 06:27:59;;;;;;;5.97;3.63;;;20.50;99.90;;;;;;5033358;28;20033;-78
2021/07/25 06:30:27;;;;;;;8.68;4.18;;;20.50;99.90;;;;;;5033607;28;20494;-70
2021/07/25 06:33:08;;;;;;;6.90;4.05;;;20.60;99.90;;;;;;5032167;28;20390;-74
2021/07/25 06:35:38;;;;;;;8.27;4.43;;;20.60;99.90;;;;;;5031939;28;20033;-72
2021/07/25 06:38:08;;;;;;;5.55;3.95;;;20.60;99.90;;;;;;5032584;28;20114;-73
2021/07/25 06:40:35;;;;;;;7.07;4.25;;;20.70;99.90;;;;;;5033593;28;20040;-74
2021/07/25 06:43:03;;;;;;;9.10;4.18;;;20.70;99.90;;;;;;5025243;28;20038;-79
2021/07/25 06:45:30;;;;;;;7.35;4.22;;;20.70;99.90;;;;;;5023872;28;20136;-77
2021/07/25 06:47:56;;;;;;;6.80;4.70;;;20.80;99.90;;;;;;4991064;28;20049;-77
2021/07/25 06:50:26;;;;;;;12.23;4.72;;;20.80;99.90;;;;;;5020732;28;20498;-76
2021/07/25 06:52:53;;;;;;;6.90;4.20;;;20.90;99.90;;;;;;5021930;28;20030;-74
2021/07/25 06:55:21;;;;;;;7.38;4.40;;;20.80;99.90;;;;;;5028325;28;20494;-71
2021/07/25 06:57:47;;;;;;;9.95;5.05;;;21.00;99.90;;;;;;5032982;28;20069;-75
2021/07/25 07:00:14;;;;;;;8.50;4.50;;;21.00;99.90;;;;;;5033033;28;20029;-72
2021/07/25 07:02:56;;;;;;;8.45;4.35;;;21.10;99.90;;;;;;5032915;28;20029;-72
2021/07/25 07:05:33;;;;;;;7.82;4.22;;;21.30;99.90;;;;;;5032990;28;20080;-72
2021/07/25 07:08:06;;;;;;;6.47;4.57;;;21.40;99.90;;;;;;5032649;28;20060;-72
2021/07/25 07:10:36;;;;;;;10.18;4.18;;;21.50;99.90;;;;;;5032817;28;20033;-76
2021/07/25 07:13:07;;;;;;;7.15;4.20;;;21.60;99.90;;;;;;5031327;28;20371;-79
2021/07/25 07:15:39;;;;;;;6.90;4.35;;;21.50;99.90;;;;;;5032640;28;20113;-73
2021/07/25 07:18:05;;;;;;;7.05;3.85;;;21.60;99.90;;;;;;5005555;28;20045;-71
2021/07/25 07:20:31;;;;;;;6.40;4.22;;;21.50;99.90;;;;;;5024283;28;20033;-72
2021/07/25 07:23:08;;;;;;;6.70;4.50;;;21.50;99.90;;;;;;5032442;28;20088;-72
2021/07/25 07:25:44;;;;;;;6.22;4.25;;;21.50;99.90;;;;;;5035331;28;20060;-73
2021/07/25 07:28:11;;;;;;;7.15;4.43;;;21.70;99.90;;;;;;5032531;28;20061;-73
2021/07/25 07:30:39;;;;;;;8.00;4.18;;;21.70;99.90;;;;;;5032393;28;20040;-78
2021/07/25 07:33:06;;;;;;;7.80;4.60;;;21.60;99.90;;;;;;5032231;28;20474;-72
2021/07/25 07:35:32;;;;;;;6.35;4.20;;;21.50;99.90;;;;;;5032372;28;20055;-73
2021/07/25 07:37:57;;;;;;;7.35;4.13;;;21.60;99.90;;;;;;5032347;28;20522;-73
2021/07/25 07:40:23;;;;;;;7.15;4.68;;;21.70;99.90;;;;;;5032518;28;20478;-78
2021/07/25 07:42:49;;;;;;;6.25;4.38;;;21.80;99.90;;;;;;5031991;28;20572;-70
2021/07/25 07:45:18;;;;;;;10.48;6.82;;;21.90;99.90;;;;;;5032095;28;20052;-73
2021/07/25 07:47:45;;;;;;;7.82;4.22;;;21.80;99.90;;;;;;5031926;28;20033;-69
2021/07/25 07:50:11;;;;;;;10.25;4.45;;;21.70;99.90;;;;;;5040848;28;20037;-69
2021/07/25 07:52:37;;;;;;;6.28;4.15;;;21.70;99.90;;;;;;5052362;28;20025;-71
2021/07/25 07:55:04;;;;;;;6.15;4.28;;;21.70;99.90;;;;;;5051057;28;20116;-72
2021/07/25 07:57:30;;;;;;;16.52;5.13;;;21.80;99.90;;;;;;5052292;28;20036;-73
2021/07/25 07:59:55;;;;;;;5.90;4.75;;;21.70;99.90;;;;;;5052133;28;20382;-73
2021/07/25 08:02:21;;;;;;;13.55;10.52;;;21.50;99.90;;;;;;5051120;28;20109;-72
2021/07/25 08:04:47;;;;;;;7.85;4.47;;;21.70;99.90;;;;;;5052130;28;20037;-72
2021/07/25 08:07:13;;;;;;;5.97;4.22;;;21.50;99.90;;;;;;5051785;28;20052;-72
2021/07/25 08:09:38;;;;;;;6.13;3.80;;;21.70;99.90;;;;;;5052086;28;20036;-73
2021/07/25 08:12:06;;;;;;;5.80;4.20;;;21.80;99.90;;;;;;5050482;28;20060;-72
2021/07/25 08:14:32;;;;;;;9.30;4.15;;;21.80;99.90;;;;;;5052170;28;20036;-73
2021/07/25 08:16:58;;;;;;;7.18;4.10;;;21.90;99.90;;;;;;5051940;28;20381;-70
2021/07/25 08:19:24;;;;;;;6.03;3.95;;;22.00;99.90;;;;;;5049577;28;20056;-70
2021/07/25 08:21:50;;;;;;;6.90;4.00;;;22.10;99.90;;;;;;5031862;28;20037;-72
2021/07/25 08:24:16;;;;;;;6.78;3.70;;;21.80;99.90;;;;;;5030543;28;20029;-71
2021/07/25 08:26:42;;;;;;;6.43;3.80;;;22.00;99.90;;;;;;5031642;28;20041;-72
2021/07/25 08:29:07;;;;;;;7.00;4.07;;;22.30;99.90;;;;;;5032012;28;20021;-71
2021/07/25 08:31:34;;;;;;;5.13;3.70;;;22.50;99.90;;;;;;5031677;28;20042;-71
2021/07/25 08:34:00;;;;;;;6.07;3.70;;;22.60;99.90;;;;;;5030350;28;20430;-73
2021/07/25 08:36:26;;;;;;;7.07;4.15;;;22.60;99.90;;;;;;5031948;28;20076;-73
2021/07/25 08:38:52;;;;;;;7.38;4.30;;;22.70;99.90;;;;;;5031754;28;20037;-74
2021/07/25 08:41:40;;;;;;;6.97;3.97;;;22.70;99.90;;;;;;5031483;28;20128;-74
2021/07/25 08:44:23;;;;;;;7.00;3.70;;;22.60;99.90;;;;;;5031170;28;20529;-73
2021/07/25 08:46:57;;;;;;;5.15;3.35;;;22.60;99.90;;;;;;5031507;28;20107;-74
2021/07/25 08:49:48;;;;;;;381.40;341.27;;;22.60;99.90;;;;;;5030998;28;20477;-74
2021/07/25 08:52:18;;;;;;;6.60;4.10;;;22.90;99.90;;;;;;5031399;28;20032;-72
2021/07/25 08:54:44;;;;;;;5.45;3.38;;;22.90;99.90;;;;;;5031888;28;20116;-73
2021/07/25 08:57:18;;;;;;;6.80;4.32;;;22.80;99.90;;;;;;5031376;28;20371;-75
2021/07/25 08:59:47;;;;;;;5.65;3.70;;;22.90;99.90;;;;;;5031707;28;20121;-77
2021/07/25 09:02:25;;;;;;;6.20;3.88;;;22.80;99.90;;;;;;5035245;28;20029;-76
2021/07/25 09:04:53;;;;;;;4.88;3.30;;;23.00;99.90;;;;;;5033952;28;20079;-75
2021/07/25 09:07:23;;;;;;;5.60;3.58;;;23.20;99.90;;;;;;5035202;28;20083;-73
2021/07/25 09:09:53;;;;;;;9.32;4.07;;;23.20;99.90;;;;;;5035200;28;20041;-73
2021/07/25 09:12:21;;;;;;;5.28;3.13;;;23.30;99.90;;;;;;5033790;28;20391;-74
2021/07/25 09:14:53;;;;;;;5.05;3.10;;;23.50;99.90;;;;;;5035099;28;20433;-73
2021/07/25 09:17:20;;;;;;;5.28;2.92;;;23.40;99.90;;;;;;5033828;28;20036;-75
2021/07/25 09:20:17;;;;;;;4.53;2.85;;;23.50;99.90;;;;;;5029652;28;20057;-72
2021/07/25 09:22:49;;;;;;;6.72;3.42;;;23.70;99.90;;;;;;5013861;28;20029;-76
2021/07/25 09:25:21;;;;;;;7.57;4.20;;;23.90;99.90;;;;;;5029380;28;20729;-73
2021/07/25 09:27:56;;;;;;;5.25;3.53;;;23.80;99.90;;;;;;5034689;28;20569;-75
2021/07/25 09:30:23;;;;;;;4.90;3.40;;;23.70;99.90;;;;;;5034901;28;20115;-74
2021/07/25 09:32:49;;;;;;;4.65;2.85;;;23.80;99.90;;;;;;5034804;28;20030;-75
2021/07/25 09:35:39;;;;;;;5.95;3.35;;;23.80;99.90;;;;;;5034324;28;20036;-73
2021/07/25 09:38:05;;;;;;;4.60;2.90;;;23.90;99.90;;;;;;5034740;28;20079;-73
2021/07/25 09:40:39;;;;;;;5.55;3.00;;;23.90;99.90;;;;;;5034596;28;20037;-74
2021/07/25 09:43:15;;;;;;;4.28;2.75;;;24.10;99.90;;;;;;5034519;28;20034;-75
2021/07/25 09:45:50;;;;;;;5.25;2.88;;;24.10;99.90;;;;;;5034133;28;20498;-78
2021/07/25 09:48:34;;;;;;;3.67;2.47;;;23.90;99.90;;;;;;5032957;28;20042;-74
2021/07/25 09:51:17;;;;;;;7.90;3.13;;;24.00;99.90;;;;;;5025955;28;20066;-74
2021/07/25 09:53:45;;;;;;;7.95;2.92;;;23.80;99.90;;;;;;5014594;28;20116;-74
2021/07/25 09:56:16;;;;;;;4.43;2.53;;;23.90;99.90;;;;;;5013191;28;20030;-71
2021/07/25 09:58:44;;;;;;;4.80;2.75;;;24.10;99.90;;;;;;4996965;28;20029;-72
2021/07/25 10:01:10;;;;;;;4.50;3.00;;;24.00;99.90;;;;;;5013063;28;20505;-74
2021/07/25 10:03:36;;;;;;;5.80;2.70;;;24.10;99.90;;;;;;5014172;28;20372;-73
2021/07/25 10:06:22;;;;;;;6.40;3.40;;;24.50;99.90;;;;;;5012383;28;20029;-75
2021/07/25 10:09:06;;;;;;;4.90;3.33;;;24.40;99.90;;;;;;5014343;28;20112;-75
2021/07/25 10:11:33;;;;;;;4.32;2.90;;;24.60;99.90;;;;;;5012042;28;20541;-72
2021/07/25 10:13:59;;;;;;;5.95;2.83;;;24.80;99.90;;;;;;5013850;28;20029;-76
2021/07/25 10:16:25;;;;;;;5.05;2.63;;;24.80;99.90;;;;;;5013503;28;20045;-80
2021/07/25 10:18:55;;;;;;;8.35;2.95;;;24.80;99.90;;;;;;5012533;28;20049;-79
2021/07/25 10:21:23;;;;;;;4.00;2.72;;;25.00;99.90;;;;;;5030789;28;20079;-75
2021/07/25 10:23:55;;;;;;;6.22;3.30;;;25.00;99.90;;;;;;5032560;28;20706;-79
2021/07/25 10:26:25;;;;;;;5.32;3.20;;;25.30;99.90;;;;;;5033283;28;20064;-77
2021/07/25 10:28:57;;;;;;;4.75;2.67;;;25.20;99.90;;;;;;5015949;28;20069;-79
2021/07/25 10:31:25;;;;;;;5.68;3.10;;;25.30;99.90;;;;;;5033642;28;20117;-77
2021/07/25 10:33:53;;;;;;;5.82;2.72;;;25.60;99.90;;;;;;5033797;28;20107;-81
2021/07/25 10:36:20;;;;;;;6.05;2.78;;;25.90;99.90;;;;;;5033196;28;20021;-80
2021/07/25 10:38:48;;;;;;;5.78;2.80;;;26.00;99.90;;;;;;5033601;28;20072;-78
2021/07/25 10:41:24;;;;;;;6.00;2.75;;;26.20;99.90;;;;;;5032846;28;20026;-79
2021/07/25 10:43:50;;;;;;;5.55;3.00;;;26.20;99.90;;;;;;5032039;28;20045;-80
2021/07/25 10:46:22;;;;;;;4.43;2.80;;;26.40;99.90;;;;;;5031636;28;20064;-78
2021/07/25 10:49:02;;;;;;;3.92;2.53;;;26.30;99.90;;;;;;5033211;28;20072;-78
2021/07/25 10:51:29;;;;;;;4.32;3.17;;;26.30;99.90;;;;;;5013923;28;20030;-84
2021/07/25 10:54:22;;;;;;;4.97;2.80;;;26.40;99.90;;;;;;5013798;28;20111;-78
2021/07/25 10:57:04;;;;;;;;;;;26.50;99.50;;;;;;5013778;28;20049;-77
2021/07/25 11:00:02;;;;;;;4.90;2.60;;;26.50;99.90;;;;;;5013273;28;19995;-79
2021/07/25 11:02:29;;;;;;;10.00;3.80;;;26.80;98.70;;;;;;5000822;28;20038;-77
2021/07/25 11:04:55;;;;;;;4.75;2.20;;;27.10;99.60;;;;;;5013250;28;20041;-78
2021/07/25 11:07:23;;;;;;;5.72;2.65;;;27.30;97.80;;;;;;5013025;28;20037;-79
2021/07/25 11:10:12;;;;;;;4.20;2.60;;;27.30;97.80;;;;;;5013235;28;20041;-78
2021/07/25 11:12:56;;;;;;;5.65;3.00;;;27.30;97.20;;;;;;5013359;28;20504;-79
2021/07/25 11:15:34;;;;;;;4.25;2.35;;;27.20;96.90;;;;;;5012666;28;20120;-78
2021/07/25 11:18:16;;;;;;;4.43;2.25;;;27.50;96.00;;;;;;4995633;28;20164;-82
2021/07/25 11:20:54;;;;;;;4.20;2.60;;;27.50;95.80;;;;;;5012035;28;20485;-82
2021/07/25 11:23:19;;;;;;;5.15;2.42;;;28.00;95.80;;;;;;5012840;28;20072;-80
2021/07/25 11:25:50;;;;;;;3.97;2.10;;;28.10;95.10;;;;;;5013029;28;20057;-82
2021/07/25 11:28:39;;;;;;;5.07;2.60;;;27.90;94.40;;;;;;5012782;28;20037;-77
2021/07/25 11:31:06;;;;;;;6.80;3.40;;;27.80;94.60;;;;;;5018851;28;20498;-77
2021/07/25 11:33:43;;;;;;;3.78;2.55;;;27.70;94.20;;;;;;5011894;28;20537;-77
2021/07/25 11:36:29;;;;;;;3.42;2.42;;;27.90;94.30;;;;;;5013190;28;20061;-79
2021/07/25 11:39:00;;;;;;;4.88;3.05;;;28.20;93.80;;;;;;5011405;28;20375;-75
2021/07/25 11:41:38;;;;;;;4.32;2.58;;;27.80;93.90;;;;;;5011355;28;20037;-76
2021/07/25 11:44:10;;;;;;;3.30;1.90;;;28.10;93.00;;;;;;5012591;28;20053;-74
2021/07/25 11:46:38;;;;;;;5.25;2.13;;;28.20;92.20;;;;;;5012527;28;20046;-75
2021/07/25 11:49:08;;;;;;;3.78;1.92;;;28.00;92.60;;;;;;5011138;28;20117;-75
2021/07/25 11:51:36;;;;;;;4.30;2.17;;;28.50;91.90;;;;;;5032211;28;20030;-76
2021/07/25 11:54:03;;;;;;;4.25;2.42;;;28.70;92.50;;;;;;5032160;28;20475;-74
2021/07/25 11:56:29;;;;;;;3.55;2.10;;;28.90;92.00;;;;;;5032071;28;20041;-73
2021/07/25 11:59:07;;;;;;;3.90;2.30;;;29.00;91.80;;;;;;5014368;28;20022;-74
2021/07/25 12:01:35;;;;;;;4.97;2.83;;;28.60;91.90;;;;;;5032417;28;20447;-77
2021/07/25 12:04:17;;;;;;;4.30;2.20;;;28.40;92.50;;;;;;5032066;28;20025;-77
2021/07/25 12:06:43;;;;;;;3.40;2.47;;;29.00;91.20;;;;;;5032126;28;20044;-71
2021/07/25 12:09:10;;;;;;;4.10;2.20;;;28.90;91.80;;;;;;5030558;28;20029;-74
2021/07/25 12:11:38;;;;;;;3.92;2.10;;;29.60;90.70;;;;;;5030923;28;20086;-70
2021/07/25 12:14:05;;;;;;;3.95;2.35;;;29.60;89.10;;;;;;5032021;28;20041;-71
2021/07/25 12:16:45;;;;;;;5.15;2.35;;;29.60;88.50;;;;;;5032096;28;20036;-73
2021/07/25 12:19:15;;;;;;;4.57;2.17;;;29.50;89.80;;;;;;5031552;28;20191;-73
2021/07/25 12:21:42;;;;;;;4.40;2.10;;;29.10;88.70;;;;;;5032014;28;20493;-73
2021/07/25 12:24:30;;;;;;;4.13;2.15;;;29.40;88.90;;;;;;5030731;28;20084;-71
2021/07/25 12:26:57;;;;;;;5.82;2.22;;;29.90;86.50;;;;;;5031893;28;20044;-72
2021/07/25 12:29:46;;;;;;;3.38;1.92;;;29.90;85.40;;;;;;5031693;28;20159;-72
2021/07/25 12:32:30;;;;;;;4.88;1.90;;;29.80;85.10;;;;;;5031927;28;20037;-73
2021/07/25 12:35:15;;;;;;;4.07;2.33;;;29.80;83.60;;;;;;5032134;28;20041;-73
2021/07/25 12:37:51;;;;;;;3.20;2.13;;;29.70;86.10;;;;;;5034609;28;20124;-71
2021/07/25 12:40:27;;;;;;;2.85;1.60;;;29.50;87.80;;;;;;5035751;28;20032;-72
2021/07/25 12:42:56;;;;;;;4.32;1.98;;;29.90;85.70;;;;;;5034198;28;20037;-72
2021/07/25 12:45:34;;;;;;;3.13;1.90;;;30.30;82.80;;;;;;5035180;28;20073;-72
2021/07/25 12:48:23;;;;;;;3.58;1.75;;;30.40;83.50;;;;;;5035352;28;20037;-72
2021/07/25 12:53:41;;;;;;;4.88;2.20;;;29.60;85.40;;;;;;5055110;28;20032;-72
2021/07/25 12:56:24;;;;;;;4.30;2.13;;;30.10;84.50;;;;;;5054200;28;20522;-73
2021/07/25 12:58:54;;;;;;;3.05;1.90;;;29.80;81.30;;;;;;5044604;28;20213;-73